Den Haag, Netherlands

6:45 PM CEST on July 29, 2016 (GMT +0200)
Loosduinen | | Change Station

Elev 23 ft 52.04 °N, 4.24 °E | Updated 3 seconds ago

Overcast
Overcast
69.2 °F
Feels Like 69.2 °F
N
4.6
Wind Variable Wind from SW
Gusts 4.6 mph

Today
High -- | Low -- °F
--% Chance of Precip.
Yesterday
High -- | Low -- °F
Precip. -- in
Pressure 29.86 in
Visibility 6.2 miles
Clouds Few 2300 ft
Mostly Cloudy 4400 ft
Overcast 4900 ft
Dew Point 65 °F
Humidity 86%
Rainfall 0.18 in
Snow Depth Not available.
6:00 AM 9:37 PM
Waning Crescent, 20% visible
METAR EHRD 291625Z AUTO 24013KT 9999 FEW023 BKN044 OVC049 21/16 Q1011 NOSIG
Pressure 29.86 in
Visibility 6.2 miles
Clouds Few 2300 ft
Mostly Cloudy 4400 ft
Overcast 4900 ft
Dew Point 65 °F
Humidity 86%
Rainfall 0.18 in
Snow Depth Not available.
6:00 AM 9:37 PM
Waning Crescent, 20% visible
METAR EHRD 291625Z AUTO 24013KT 9999 FEW023 BKN044 OVC049 21/16 Q1011 NOSIG

10-Day Weather Forecast

×

Almanac

Astronomy

Jul. 29, 2016 Rise Set
Actual Time
Civil Twilight
Nautical Twilight
Astronomical Twilight
Moon
Length of Visible Light
Length of Day
Tomorrow will be .
, % of the Moon is Illuminated

Today's Extremes

Country Highs Country Lows

Community

WunderPhotos

Upload Photos

1,928,378 photos uploaded!

WunderBlog® & News

Nearby

Air Quality

  Air Quality AQ Index Pollutant
Not available.

Snow Depth

Station Depth Elevation

Earthquake Activity

City Distance Mag. Time & Date
Minimum magnitude displayed is 2.5.

Coastal Water Temperatures

Place Temperature

Stations

Nearby Weather Stations

Station Location Temp. Windchill Dew Point Humidity Wind Precip. Elev Updated Type